Latest Weather Observations for Launceston Airport

IDT60801

Issued at 7:05 pm EST Tuesday 22 July 2014 (issued every 30 minutes, with the page automatically refreshed every 10 minutes)

About weather observations | Map of weather stations | Latest weather observations for TAS | Other Formats
Station Details ID: 091311 Name: LAUNCESTON AIRPORT Lat: -41.55 Lon: 147.21 Height: 166.9 m
Data from the previous 72 hours. | See also: Recent months at Launceston Airport
Date/Time
EST
Temp
°C
App
Temp
°C
Dew
Point
Rel
Hum
%
Delta-T
°C
Wind Press
QNH
hPa
Press
MSL
hPa
Rain
since 9 am
mm
Dir
 
Spd
km/h
Gust
km/h
Spd
kts
Gust
kts
22/07:00pm 5.7 4.3 3.7 87 0.8 SE 0 0 0 0 1025.0 1025.4 0.0
22/06:30pm 6.0 4.7 4.0 87 0.9 SE 0 0 0 0 1025.0 - 0.0
22/06:00pm 5.8 4.3 2.8 81 1.2 CALM 0 0 0 0 1024.8 1025.2 0.0
22/05:30pm 6.7 5.3 3.3 79 1.4 CALM 0 0 0 0 1024.6 - 0.0
22/05:00pm 8.3 7.0 4.1 75 1.8 CALM 0 0 0 0 1024.5 1024.9 0.0
22/04:30pm 9.3 8.0 4.3 71 2.2 CALM 0 0 0 0 1024.2 - 0.0
22/04:00pm 10.3 9.2 5.1 70 2.4 CALM 0 0 0 0 1024.2 1024.7 0.0
22/03:30pm 11.2 10.2 5.5 68 2.7 CALM 0 4 0 2 1024.2 - 0.0
22/03:00pm 10.7 9.3 5.5 70 2.4 SW 2 7 1 4 1024.2 1024.7 0.0
22/02:30pm 10.6 9.1 5.2 69 2.5 W 2 7 1 4 1024.2 - 0.0
22/02:00pm 11.1 9.0 3.9 61 3.2 N 4 7 2 4 1024.5 1024.9 0.0
22/01:30pm 9.6 7.9 4.2 69 2.4 ENE 2 6 1 3 1024.7 - 0.0
22/01:00pm 8.0 5.8 3.5 73 1.9 ESE 4 7 2 4 1025.0 1025.4 0.0
22/12:30pm 7.2 5.5 4.0 80 1.4 S 2 7 1 4 1025.4 - 0.0
22/12:00pm 5.0 1.8 3.2 88 0.7 SSW 9 11 5 6 1026.0 1026.4 0.0
22/11:34am 3.9 0.7 2.9 93 0.4 S 9 11 5 6 1026.5 - 0.0
22/11:33am 3.9 0.7 2.9 93 0.4 S 9 9 5 5 1026.5 - 0.0
22/11:30am 3.9 0.7 3.0 94 0.4 S 9 11 5 6 1026.6 - 0.0
22/11:07am 2.7 -0.7 2.1 96 0.2 SSW 9 13 5 7 1026.8 - 0.0
22/11:00am 2.4 -1.4 1.7 95 0.3 S 11 13 6 7 1026.9 1027.4 0.0
22/10:52am 2.4 -1.0 1.7 95 0.3 S 9 13 5 7 1027.0 - 0.0
22/10:30am 2.4 -1.0 2.1 98 0.1 S 9 11 5 6 1027.2 - 0.0
22/10:14am 2.3 -0.7 2.0 98 0.1 S 7 11 4 6 1027.2 - 0.0
22/10:09am 2.1 -1.3 1.8 98 0.1 SSW 9 13 5 7 1027.1 - 0.0
22/10:00am 1.1 -2.5 0.8 98 0.1 SSW 9 13 5 7 1027.1 1027.6 0.0
22/09:41am 0.5 -3.9 0.2 98 0.1 SSW 13 19 7 10 1027.2 - 0.0
22/09:30am 0.5 -4.3 0.4 99 0.0 SSW 15 19 8 10 1027.1 - 0.0
22/09:21am 0.3 -4.5 0.2 99 0.0 SSW 15 17 8 9 1026.9 - 0.0
22/09:03am 0.1 -3.6 0.0 99 0.0 S 9 13 5 7 1026.8 - 0.0
22/09:00am 0.2 -3.1 0.1 99 0.0 S 7 11 4 6 1026.8 1027.3 0.2
22/08:49am -0.1 -3.8 -0.2 99 0.0 S 9 13 5 7 1026.7 - 0.2
22/08:44am -0.4 -4.2 -0.5 99 0.0 SSW 9 11 5 6 1026.7 - 0.2
22/08:30am -0.7 -5.3 -0.8 99 0.0 SSW 13 15 7 8 1026.6 - 0.2
22/08:00am -0.8 -5.0 -1.1 98 0.1 S 11 13 6 7 1026.5 1027.0 0.2
22/07:43am -0.6 -4.4 -0.9 98 0.1 SSW 9 11 5 6 1026.5 - 0.2
22/07:33am -0.5 -4.3 -0.8 98 0.1 S 9 13 5 7 1026.4 - 0.2
22/07:30am -0.4 -4.2 -0.7 98 0.1 S 9 13 5 7 1026.4 - 0.2
22/07:23am 0.0 -3.4 -0.3 98 0.1 S 7 9 4 5 1026.3 - 0.2
22/07:00am 0.7 -2.4 0.4 98 0.1 S 6 9 3 5 1026.1 1026.5 0.2
22/06:32am 0.5 -2.8 0.2 98 0.1 S 7 11 4 6 1025.9 - 0.2
22/06:30am 0.5 -2.8 0.2 98 0.1 SSW 7 11 4 6 1025.9 - 0.2
22/06:00am 0.2 -3.5 -0.1 98 0.1 S 9 13 5 7 1025.7 1026.1 0.2
22/05:47am 0.0 -3.4 -0.3 98 0.1 SSW 7 9 4 5 1025.7 - 0.2
22/05:43am 0.0 -3.4 -0.3 98 0.1 S 7 9 4 5 1025.7 - 0.2
22/05:30am 0.0 -3.7 -0.3 98 0.1 WSW 9 11 5 6 1025.6 - 0.2
22/05:00am -0.2 -3.9 -0.3 99 0.0 S 9 13 5 7 1025.6 1026.0 0.2
22/04:47am -0.3 -3.7 -0.4 99 0.0 S 7 11 4 6 1025.7 - 0.2
22/04:46am -0.2 -3.6 -0.3 99 0.0 S 7 11 4 6 1025.7 - 0.2
22/04:30am -0.5 -3.9 -0.6 99 0.0 S 7 9 4 5 1025.7 - 0.2
22/04:00am -1.0 -5.2 -1.1 99 0.0 SSW 11 13 6 7 1025.5 1025.9 0.2
22/03:31am -1.2 -5.1 -1.5 98 0.0 S 9 11 5 6 1025.4 - 0.2
22/03:30am -1.3 -5.2 -1.6 98 0.0 S 9 11 5 6 1025.4 - 0.2
22/03:19am -1.5 -5.1 -1.8 98 0.0 S 7 9 4 5 1025.4 - 0.2
22/03:05am -1.0 -4.9 -1.3 98 0.1 SSW 9 11 5 6 1025.5 - 0.2
22/03:00am -1.1 -5.0 -1.4 98 0.1 SSW 9 11 5 6 1025.6 1026.0 0.2
22/02:56am -1.0 -4.9 -1.3 98 0.1 SSW 9 13 5 7 1025.6 - 0.2
22/02:30am -1.1 -5.0 -1.4 98 0.1 S 9 11 5 6 1025.7 - 0.2
22/02:13am -1.3 -4.6 -1.6 98 0.0 SSE 6 7 3 4 1025.8 - 0.2
22/02:00am -0.9 -3.8 -1.2 98 0.1 S 4 7 2 4 1025.8 1026.2 0.2
22/01:30am -0.8 -4.1 -1.1 98 0.1 SSW 6 9 3 5 1025.8 - 0.2
22/01:25am -0.7 -4.5 -1.0 98 0.1 SSW 9 11 5 6 1025.8 - 0.2
22/01:00am -0.1 -3.5 -0.4 98 0.1 SSW 7 9 4 5 1025.9 1026.3 0.2
22/12:41am 0.9 -1.0 0.6 98 0.1 CALM 0 0 0 0 1025.9 - 0.2
22/12:30am 0.8 -1.1 0.5 98 0.1 CALM 0 4 0 2 1026.0 - 0.2
22/12:00am 1.3 -1.9 0.9 97 0.1 SSW 7 7 4 4 1026.0 1026.4 0.2
 
Date/Time
EST
Temp
°C
App
Temp
°C
Dew
Point
Rel
Hum
%
Delta-T
°C
Wind Press
QNH
hPa
Press
MSL
hPa
Rain
since 9 am
mm
Dir
 
Spd
km/h
Gust
km/h
Spd
kts
Gust
kts
21/11:56pm 1.7 -1.2 1.4 98 0.1 SSW 6 7 3 4 1026.0 - 0.2
21/11:30pm 1.2 -2.8 0.8 97 0.2 SW 11 11 6 6 1026.1 - 0.2
21/11:17pm 1.4 -2.5 1.0 97 0.2 SW 11 13 6 7 1026.1 - 0.2
21/11:06pm 1.5 -2.4 1.1 97 0.2 SW 11 15 6 8 1026.1 - 0.2
21/11:00pm 1.2 -2.8 0.8 97 0.1 SW 11 13 6 7 1026.1 1026.5 0.2
21/10:40pm 1.1 -2.5 0.5 96 0.2 SSW 9 13 5 7 1026.1 - 0.2
21/10:33pm 1.7 -1.4 1.1 96 0.2 S 7 9 4 5 1026.1 - 0.2
21/10:30pm 1.7 -1.4 1.1 96 0.2 S 7 9 4 5 1026.1 - 0.2
21/10:00pm 2.5 0.8 1.8 95 0.3 CALM 0 0 0 0 1026.1 1026.5 0.2
21/09:30pm 3.1 1.5 2.4 95 0.3 CALM 0 0 0 0 1026.2 - 0.2
21/09:00pm 2.6 -0.4 1.7 94 0.3 S 7 9 4 5 1026.3 1026.8 0.2
21/08:30pm 3.1 0.1 2.2 94 0.4 S 7 7 4 4 1026.2 - 0.2
21/08:00pm 3.4 0.5 2.7 95 0.3 SW 7 9 4 5 1026.1 1026.5 0.2
21/07:30pm 3.2 -0.1 2.3 94 0.4 S 9 11 5 6 1026.0 - 0.2
21/07:00pm 3.8 1.0 2.9 94 0.4 S 7 9 4 5 1026.0 1026.4 0.2
21/06:30pm 3.7 0.8 2.7 93 0.4 S 7 11 4 6 1025.9 - 0.2
21/06:00pm 4.1 1.4 2.8 91 0.5 S 6 9 3 5 1025.7 1026.1 0.2
21/05:30pm 4.5 1.7 3.0 90 0.6 SSW 7 9 4 5 1025.6 - 0.2
21/05:00pm 6.2 4.9 4.0 86 0.9 CALM 0 0 0 0 1025.7 1026.1 0.2
21/04:30pm 6.4 3.8 4.1 85 1.0 SSE 7 9 4 5 1025.5 - 0.2
21/04:00pm 7.2 4.7 4.7 84 1.1 SSE 7 9 4 5 1025.4 1025.8 0.2
21/03:30pm 7.8 5.3 4.6 80 1.4 S 7 9 4 5 1025.3 - 0.2
21/03:00pm 8.3 5.8 4.9 79 1.5 S 7 11 4 6 1025.3 1025.7 0.2
21/02:30pm 8.6 7.0 4.6 76 1.8 S 2 6 1 3 1025.2 - 0.2
21/02:00pm 7.7 5.2 4.5 80 1.4 SSW 7 9 4 5 1025.5 1025.9 0.2
21/01:30pm 6.8 3.8 4.1 83 1.2 SSW 9 11 5 6 1025.6 - 0.2
21/01:00pm 6.0 2.6 4.2 88 0.8 SSW 11 13 6 7 1025.8 1026.2 0.2
21/12:30pm 5.1 2.0 3.4 89 0.7 SSW 9 11 5 6 1026.2 - 0.2
21/12:00pm 4.3 1.1 3.3 93 0.4 SSW 9 13 5 7 1026.6 1027.1 0.2
21/11:35am 3.5 0.7 3.2 98 0.1 SSW 7 9 4 5 1027.0 - 0.2
21/11:32am 3.3 0.5 3.0 98 0.1 SSW 7 9 4 5 1027.1 - 0.2
21/11:30am 3.3 0.5 3.0 98 0.1 SSW 7 11 4 6 1027.1 - 0.2
21/11:06am 2.3 -1.5 2.0 98 0.1 SSW 11 13 6 7 1027.6 - 0.2
21/11:00am 1.7 -1.8 1.4 98 0.1 SSW 9 13 5 7 1027.6 1028.1 0.2
21/10:56am 1.7 -1.8 1.4 98 0.1 S 9 13 5 7 1027.6 - 0.2
21/10:44am 1.6 -2.3 1.3 98 0.1 S 11 13 6 7 1027.7 - 0.2
21/10:31am 1.0 -2.6 0.7 98 0.1 S 9 13 5 7 1027.8 - 0.2
21/10:30am 1.0 -2.6 0.7 98 0.1 S 9 13 5 7 1027.8 - 0.2
21/10:18am 0.6 -3.4 0.3 98 0.1 SSW 11 13 6 7 1027.8 - 0.2
21/10:17am 0.7 -3.3 0.4 98 0.1 SSW 11 13 6 7 1027.8 - 0.2
21/10:00am 0.1 -3.6 -0.2 98 0.1 S 9 13 5 7 1027.9 1028.4 0.2
21/09:58am 0.1 -3.6 -0.2 98 0.1 S 9 11 5 6 1027.9 - 0.2
21/09:30am -0.3 -4.5 -0.6 98 0.1 S 11 13 6 7 1027.9 - 0.2
21/09:00am -0.9 -5.1 -1.2 98 0.1 SSW 11 13 6 7 1027.8 1028.3 0.0
21/08:30am -1.8 -6.2 -2.1 98 0.0 S 11 13 6 7 1027.7 - 0.0
21/08:19am -2.1 -6.1 -2.4 98 0.0 SSE 9 11 5 6 1027.6 - 0.0
21/08:00am -2.5 -6.2 -2.9 97 0.0 S 7 9 4 5 1027.6 1028.1 0.0
21/07:30am -2.5 -6.0 -2.8 98 0.0 S 6 7 3 4 1027.5 - 0.0
21/07:00am -2.3 -5.8 -2.7 97 0.0 SW 6 7 3 4 1027.4 1027.9 0.0
21/06:30am -1.9 -5.5 -2.2 98 0.0 WSW 7 9 4 5 1027.1 - 0.0
21/06:05am -2.3 -6.7 -2.6 98 0.0 SW 11 15 6 8 1027.0 - 0.0
21/06:00am -2.1 -6.5 -2.4 98 0.0 SSW 11 15 6 8 1026.9 1027.4 0.0
21/05:49am -2.1 -6.9 -2.4 98 0.0 SSW 13 13 7 7 1026.8 - 0.0
21/05:30am -1.4 -5.3 -1.7 98 0.0 S 9 11 5 6 1026.7 - 0.0
21/05:02am -0.9 -4.8 -1.2 98 0.1 SSW 9 11 5 6 1026.6 - 0.0
21/05:00am -0.8 -4.6 -1.1 98 0.1 SSW 9 11 5 6 1026.6 1027.1 0.0
21/04:44am -0.6 -5.2 -0.9 98 0.1 SSW 13 15 7 8 1026.5 - 0.0
21/04:30am -0.6 -4.8 -0.9 98 0.1 SSW 11 13 6 7 1026.4 - 0.0
21/04:00am -1.1 -5.0 -1.4 98 0.1 S 9 11 5 6 1026.2 1026.6 0.0
21/03:48am -0.8 -4.3 -1.1 98 0.1 S 7 9 4 5 1026.2 - 0.0
21/03:30am -0.6 -4.4 -0.9 98 0.1 S 9 11 5 6 1026.3 - 0.0
21/03:00am -0.6 -4.4 -0.9 98 0.1 S 9 11 5 6 1026.6 1027.1 0.0
21/02:35am 0.0 -3.8 -0.4 97 0.1 S 9 13 5 7 1026.8 - 0.0
21/02:30am -0.1 -3.9 -0.5 97 0.1 S 9 9 5 5 1026.9 - 0.0
21/02:29am 0.0 -3.7 -0.3 98 0.1 S 9 9 5 5 1026.9 - 0.0
21/02:22am 0.2 -3.5 -0.1 98 0.1 S 9 11 5 6 1026.9 - 0.0
21/02:19am 0.3 -3.4 0.0 98 0.1 S 9 11 5 6 1027.0 - 0.0
21/02:17am 0.5 -3.2 0.2 98 0.1 S 9 11 5 6 1027.0 - 0.0
21/02:15am 0.4 -3.7 0.1 98 0.1 S 11 11 6 6 1027.0 - 0.0
21/02:00am -0.4 -4.2 -0.8 97 0.1 S 9 11 5 6 1027.1 1027.6 0.0
21/01:55am -0.4 -3.8 -0.8 97 0.1 S 7 11 4 6 1027.1 - 0.0
21/01:30am -0.3 -2.4 -0.7 97 0.1 CALM 0 0 0 0 1027.0 - 0.0
21/01:28am -0.4 -2.5 -0.8 97 0.1 CALM 0 0 0 0 1027.0 - 0.0
21/01:11am -0.2 -2.3 -0.8 96 0.2 CALM 0 0 0 0 1027.0 - 0.0
21/01:00am 0.1 -2.0 -0.5 96 0.2 CALM 0 0 0 0 1027.0 1027.5 0.0
21/12:40am 0.8 -1.2 0.2 96 0.2 CALM 0 0 0 0 1027.1 - 0.0
21/12:30am 0.6 -1.4 0.0 96 0.2 CALM 0 0 0 0 1027.1 - 0.0
21/12:00am 2.0 0.2 1.3 95 0.3 CALM 0 0 0 0 1027.1 1027.6 0.0
 
Date/Time
EST
Temp
°C
App
Temp
°C
Dew
Point
Rel
Hum
%
Delta-T
°C
Wind Press
QNH
hPa
Press
MSL
hPa
Rain
since 9 am
mm
Dir
 
Spd
km/h
Gust
km/h
Spd
kts
Gust
kts
20/11:30pm 2.3 0.6 1.6 95 0.3 CALM 0 0 0 0 1027.1 - 0.0
20/11:00pm 1.9 0.0 0.7 92 0.4 CALM 0 0 0 0 1027.3 1027.8 0.0
20/10:30pm 3.2 1.5 2.0 92 0.5 CALM 0 0 0 0 1027.3 - 0.0
20/10:00pm 3.8 2.2 2.6 92 0.5 CALM 0 0 0 0 1027.3 1027.8 0.0
20/09:30pm 4.5 3.0 2.8 89 0.7 CALM 0 0 0 0 1027.0 - 0.0
20/09:00pm 3.8 2.2 2.6 92 0.5 CALM 0 0 0 0 1027.0 1027.5 0.0
20/08:30pm 3.1 1.3 1.5 89 0.6 CALM 0 0 0 0 1026.9 - 0.0
20/08:00pm 4.8 3.3 2.8 87 0.8 CALM 0 0 0 0 1026.8 1027.3 0.0
20/07:30pm 4.4 2.8 2.3 86 0.8 CALM 0 0 0 0 1026.7 - 0.0
20/07:00pm 4.7 3.0 1.9 82 1.1 CALM 0 0 0 0 1026.6 1027.1 0.0
20/06:30pm 4.8 3.2 2.3 84 1.0 CALM 0 0 0 0 1026.4 - 0.0
20/06:00pm 6.0 4.5 3.0 81 1.2 CALM 0 0 0 0 1026.1 1026.5 0.0
20/05:30pm 6.7 5.2 2.8 76 1.6 CALM 0 0 0 0 1025.8 - 0.0
20/05:00pm 8.5 6.8 3.9 73 2.0 S 2 7 1 4 1025.6 1026.0 0.0
20/04:30pm 9.3 8.0 3.9 69 2.4 CALM 0 0 0 0 1025.6 - 0.0
20/04:00pm 10.7 9.4 4.0 63 3.0 CALM 0 0 0 0 1025.6 1026.0 0.0
20/03:30pm 11.1 9.8 4.3 63 3.1 CALM 0 6 0 3 1025.6 - 0.0
20/03:00pm 11.1 8.9 3.6 60 3.3 S 4 7 2 4 1025.6 1026.0 0.0
20/02:30pm 11.1 9.0 4.1 62 3.2 SSW 4 7 2 4 1025.5 - 0.0
20/02:00pm 10.9 8.8 3.7 61 3.2 S 4 9 2 5 1025.6 1026.0 0.0
20/01:30pm 9.9 7.7 3.4 64 2.9 S 4 7 2 4 1025.8 - 0.0
20/01:00pm 9.0 6.3 3.6 69 2.3 S 7 11 4 6 1026.1 1026.5 0.0
20/12:30pm 8.1 4.2 3.6 73 2.0 SSW 13 15 7 8 1026.4 - 0.0
20/12:00pm 6.9 3.7 3.0 76 1.6 SSW 9 13 5 7 1026.7 1027.2 0.0
20/11:30am 6.1 2.1 2.7 79 1.4 SSW 13 15 7 8 1027.0 - 0.0
20/11:00am 6.2 3.9 2.7 78 1.4 S 4 9 2 5 1027.4 1027.9 0.0
20/10:30am 4.8 1.9 2.5 85 0.9 S 7 9 4 5 1027.5 - 0.0
20/10:00am 3.4 -0.1 1.4 87 0.8 S 9 11 5 6 1027.6 1028.1 0.0
20/09:30am 2.2 -1.0 1.0 92 0.5 SSW 7 9 4 5 1027.6 - 0.0
20/09:00am 1.2 -1.5 0.5 95 0.3 S 4 9 2 5 1027.7 1028.2 0.0
20/08:30am -0.1 -3.5 -0.5 97 0.1 S 7 9 4 5 1027.2 - 0.0
20/08:00am -1.6 -6.4 -2.2 96 0.1 SSW 13 15 7 8 1026.8 1027.3 0.0
20/07:30am -1.3 -5.6 -1.9 96 0.1 SSW 11 13 6 7 1026.6 - 0.0
20/07:00am -0.8 -3.3 -1.2 97 0.1 S 2 7 1 4 1026.4 1026.9 0.0
20/06:59am -1.0 -3.6 -1.4 97 0.1 S 2 7 1 4 1026.4 - 0.0
20/06:43am -1.6 -5.0 -2.2 96 0.1 S 6 11 3 6 1026.4 - 0.0
20/06:30am -1.3 -5.3 -1.9 96 0.1 S 9 13 5 7 1026.5 - 0.0
20/06:00am -1.7 -5.3 -2.3 96 0.1 SSW 7 11 4 6 1026.2 1026.6 0.0
20/05:30am -1.6 -5.6 -2.2 96 0.1 S 9 13 5 7 1026.0 - 0.0
20/05:00am -1.0 -4.5 -1.4 97 0.1 S 7 11 4 6 1026.0 1026.4 0.0
20/04:30am -1.7 -4.4 -2.3 96 0.1 S 2 13 1 7 1025.9 - 0.0
20/04:00am -1.7 -4.0 -2.4 95 0.2 CALM 0 0 0 0 1025.9 1026.3 0.0
20/03:30am -1.0 -3.2 -1.7 95 0.2 CALM 0 0 0 0 1025.9 - 0.0
20/03:00am -1.4 -3.7 -2.2 94 0.2 CALM 0 0 0 0 1026.1 1026.5 0.0
20/02:30am -0.4 -2.5 -1.1 95 0.2 CALM 0 0 0 0 1026.3 - 0.0
20/02:00am -0.7 -2.9 -1.5 94 0.2 CALM 0 0 0 0 1026.3 1026.8 0.0
20/01:30am -1.0 -3.3 -2.0 93 0.3 CALM 0 0 0 0 1026.4 - 0.0
20/01:00am -0.4 -2.6 -1.8 90 0.5 CALM 0 0 0 0 1026.5 1027.0 0.0
20/12:30am 0.4 -1.8 -1.5 87 0.7 CALM 0 0 0 0 1026.5 - 0.0
20/12:00am 0.3 -1.8 -1.1 90 0.5 CALM 0 0 0 0 1026.5 1027.0 0.0
 
Date/Time
EST
Temp
°C
App
Temp
°C
Dew
Point
Rel
Hum
%
Delta-T
°C
Wind Press
QNH
hPa
Press
MSL
hPa
Rain
since 9 am
mm
Dir
 
Spd
km/h
Gust
km/h
Spd
kts
Gust
kts
19/11:30pm 1.0 -1.2 -1.2 85 0.8 CALM 0 0 0 0 1026.5 - 0.0
19/11:00pm 2.4 0.4 0.0 84 0.9 CALM 0 0 0 0 1026.6 1027.1 0.0
19/10:30pm 1.5 -0.6 -0.9 84 0.9 CALM 0 0 0 0 1026.8 - 0.0
19/10:00pm 1.3 -1.3 -1.6 81 1.0 NNW 2 6 1 3 1026.8 1027.3 0.0
19/09:30pm 1.9 -0.2 -0.5 84 0.9 CALM 0 0 0 0 1026.9 - 0.0
19/09:10pm 2.5 0.5 0.2 85 0.9 CALM 0 0 0 0 1026.9 - 0.0
19/09:00pm 2.1 0.0 -0.6 82 1.0 CALM 0 0 0 0 1026.9 1027.4 0.0
19/08:51pm 2.7 0.6 -0.6 79 1.2 CALM 0 0 0 0 1026.9 - 0.0
19/08:30pm 2.9 0.9 0.1 82 1.1 CALM 0 0 0 0 1026.9 - 0.0
19/08:19pm 4.1 2.2 0.4 77 1.4 CALM 0 0 0 0 1026.8 - 0.0
19/08:06pm 4.3 2.4 0.8 78 1.4 CALM 0 0 0 0 1026.9 - 0.0
19/08:00pm 3.9 2.0 0.4 78 1.3 CALM 0 0 0 0 1026.9 1027.4 0.0
19/07:30pm 3.8 1.9 0.5 79 1.3 CALM 0 0 0 0 1026.7 - 0.0

Other Formats:

Comma delimited format used in spreadsheet applications
http://www.bom.gov.au/fwo/IDT60801/IDT60801.95966.axf

JavaScript Object Notation format (JSON) in row-major order
http://www.bom.gov.au/fwo/IDT60801/IDT60801.95966.json